Hong Kong, China

06:01 AM CST on Januari 21, 2017 (GMT +0800)
Hong Kong International | | Change Station

Elev 26 ft 22.31 °N, 113.91 °E | Updated 31 minutes ago

Scattered Clouds
Mendung Tidak Merata
57 °F
Feels Like 57 °F
N
9
Angin Variable Angin from Arah Timur Laut

Siang Ini
High -- | Low -- °F
--% Chance of Precip.
Yesterday
High -- | Low -- °F
Precip. -- Inch
Tekanan 30.27 Inch
Jarak Pandang 6.2 Mil
Awan Few 2500 ft
Mendung Tidak Merata 3500 ft
Titik Embun 45 °F
Kelembaban 63%
Rainfall 0.00 Inch
Snow Depth Not available.
7:05 AM 6:05 PM
Kuartil Terakhir, 41% visible
METAR VHHH 202130Z 04008KT 010V070 9999 FEW025 SCT035 14/07 Q1025 NOSIG
Tekanan 30.27 Inch
Jarak Pandang 6.2 Mil
Awan Few 2500 ft
Mendung Tidak Merata 3500 ft
Titik Embun 45 °F
Kelembaban 63%
Rainfall 0.00 Inch
Snow Depth Not available.
7:05 AM 6:05 PM
Kuartil Terakhir, 41% visible
METAR VHHH 202130Z 04008KT 010V070 9999 FEW025 SCT035 14/07 Q1025 NOSIG

Get Your Daily Forecast Email!

Thanks for signing up!

Be on the lookout for a verification email in your inbox.

You'll start receiving the daily forecast at 8 AM.

×

10-Day Weather Forecast

No radar image for this location.
×

Almanac

Astronomi

Jan. 21, 2017 Rise Set
Actual Time
Civil Twilight
Nautical Twilight
Astronomical Twilight
Moon
Length Of Visible Light
Lama Satu Hari
Tomorrow will be .
, % of the Moon is Illuminated

Today's Extremes

Country Highs Country Lows

Community

WunderPhotos

Upload Photos

1,962,540 photos uploaded!

WunderBlog® & News

Nearby

Air Quality

  Air Quality AQ Index Pollutant
Not available.

Snow Depth

Station Depth Elevation

Earthquake Activity

City Distance Mag. Time & Date
Minimum magnitude displayed is 2.5.

Coastal Water Temperatures

Lokasi Temperatur

Stations

Nearby Weather Stations

Station Location Temp Angin Dingin Titik Embun Kelembaban Angin Precip. Elev Telah Diperbaharui Type